createdAt,value
2018-03-19T00:00:38.915Z,4.10
2018-03-19T00:03:06.562Z,4.27
2018-03-19T00:05:34.192Z,4.17
2018-03-19T00:08:01.871Z,4.50
2018-03-19T00:10:30.299Z,4.33
2018-03-19T00:12:57.947Z,4.10
2018-03-19T00:15:26.630Z,4.47
2018-03-19T00:17:54.301Z,4.37
2018-03-19T00:20:21.971Z,4.03
2018-03-19T00:22:49.613Z,4.17
2018-03-19T00:25:17.251Z,3.57
2018-03-19T00:27:45.678Z,3.90
2018-03-19T00:30:13.329Z,3.80
2018-03-19T00:32:40.987Z,4.23
2018-03-19T00:35:08.652Z,4.53
2018-03-19T00:37:36.293Z,4.50
2018-03-19T00:40:03.970Z,4.43
2018-03-19T00:42:31.659Z,4.03
2018-03-19T00:45:00.501Z,4.17
2018-03-19T00:47:28.140Z,4.30
2018-03-19T00:49:55.790Z,4.00
2018-03-19T00:52:23.446Z,4.20
2018-03-19T00:54:51.077Z,3.83
2018-03-19T00:57:18.781Z,4.90
2018-03-19T00:59:46.417Z,4.20
2018-03-19T01:02:14.072Z,3.90
2018-03-19T01:04:41.727Z,4.50
2018-03-19T01:07:11.545Z,3.80
2018-03-19T01:09:39.214Z,4.33
2018-03-19T01:12:07.682Z,4.30
2018-03-19T01:14:35.349Z,4.50
2018-03-19T01:17:02.991Z,4.47
2018-03-19T01:19:30.663Z,4.43
2018-03-19T01:21:59.241Z,4.93
2018-03-19T01:24:27.686Z,4.37
2018-03-19T01:26:55.360Z,4.57
2018-03-19T01:29:23.026Z,4.40
2018-03-19T01:31:50.683Z,4.17
2018-03-19T01:34:18.341Z,4.13
2018-03-19T01:36:46.981Z,4.33
2018-03-19T01:39:14.644Z,4.47
2018-03-19T01:41:42.289Z,4.20
2018-03-19T01:44:10.706Z,4.10
2018-03-19T01:46:38.356Z,4.33
2018-03-19T01:49:06.045Z,4.60
2018-03-19T01:51:33.944Z,4.50
2018-03-19T01:54:01.591Z,4.77
2018-03-19T01:56:29.265Z,6.87
2018-03-19T01:58:56.957Z,4.07
2018-03-19T02:01:24.614Z,4.07
2018-03-19T02:03:52.299Z,4.10
2018-03-19T02:06:21.000Z,4.70
2018-03-19T02:08:48.651Z,4.20
2018-03-19T02:11:16.324Z,4.57
2018-03-19T02:13:44.014Z,5.30
2018-03-19T02:16:11.683Z,4.93
2018-03-19T02:18:39.348Z,4.83
2018-03-19T02:21:06.994Z,4.87
2018-03-19T02:23:34.659Z,4.30
2018-03-19T02:26:02.342Z,4.80
2018-03-19T02:28:29.996Z,4.50
2018-03-19T02:30:57.631Z,4.77
2018-03-19T02:33:25.274Z,4.30
2018-03-19T02:35:54.224Z,4.00
2018-03-19T02:38:21.883Z,4.80
2018-03-19T02:40:49.569Z,4.73
2018-03-19T02:43:17.284Z,4.40
2018-03-19T02:45:44.950Z,4.47
2018-03-19T02:48:12.584Z,4.70
2018-03-19T02:50:40.269Z,4.67
2018-03-19T02:53:09.494Z,4.60
2018-03-19T02:55:37.171Z,3.93
2018-03-19T02:58:04.857Z,4.90
2018-03-19T03:00:33.301Z,4.50
2018-03-19T03:03:00.922Z,4.93
2018-03-19T03:05:29.852Z,4.50
2018-03-19T03:07:57.530Z,4.53
2018-03-19T03:10:25.207Z,4.67
2018-03-19T03:12:52.893Z,4.50
2018-03-19T03:15:20.573Z,4.50
2018-03-19T03:17:48.252Z,4.83
2018-03-19T03:20:15.938Z,4.40
2018-03-19T03:22:43.597Z,5.27
2018-03-19T03:25:11.256Z,4.37
2018-03-19T03:27:38.936Z,4.77
2018-03-19T03:30:06.621Z,4.70
2018-03-19T03:32:35.077Z,4.77
2018-03-19T03:35:03.719Z,5.30
2018-03-19T03:37:31.373Z,4.70
2018-03-19T03:39:59.050Z,5.50
2018-03-19T03:42:26.749Z,4.93
2018-03-19T03:44:54.426Z,4.70
2018-03-19T03:47:22.079Z,4.87
2018-03-19T03:49:49.747Z,4.60
2018-03-19T03:52:17.403Z,4.97
2018-03-19T03:54:45.076Z,4.67
2018-03-19T03:57:12.716Z,5.30
2018-03-19T03:59:40.373Z,4.80
2018-03-19T04:02:08.044Z,4.80
2018-03-19T04:04:35.788Z,4.87
2018-03-19T04:07:03.377Z,4.60
2018-03-19T04:09:31.034Z,4.87
2018-03-19T04:11:58.705Z,4.60
2018-03-19T04:14:26.404Z,4.43
2018-03-19T04:16:54.083Z,5.07
2018-03-19T04:19:21.716Z,4.40
2018-03-19T04:21:49.419Z,5.40
2018-03-19T04:24:17.098Z,5.30
2018-03-19T04:26:45.771Z,5.17
2018-03-19T04:29:13.412Z,5.20
2018-03-19T04:31:41.077Z,5.23
2018-03-19T04:34:08.746Z,4.60
2018-03-19T04:36:36.409Z,4.73
2018-03-19T04:39:04.138Z,4.57
2018-03-19T04:41:31.825Z,4.57
2018-03-19T04:43:59.532Z,4.83
2018-03-19T04:46:27.214Z,4.50
2018-03-19T04:48:54.871Z,4.90
2018-03-19T04:51:22.535Z,4.80
2018-03-19T04:53:50.186Z,4.50
2018-03-19T04:56:18.039Z,4.70
2018-03-19T04:58:45.676Z,4.63
2018-03-19T05:01:13.322Z,4.70
2018-03-19T05:03:40.974Z,5.23
2018-03-19T05:06:08.634Z,5.17
2018-03-19T05:08:36.315Z,4.87
2018-03-19T05:11:04.005Z,5.23
2018-03-19T05:13:31.699Z,4.90
2018-03-19T05:15:59.338Z,4.90
2018-03-19T05:18:26.998Z,4.40
2018-03-19T05:20:54.654Z,5.03
2018-03-19T05:23:22.352Z,4.80
2018-03-19T05:25:51.246Z,4.70
2018-03-19T05:28:18.902Z,5.00
2018-03-19T05:30:46.576Z,4.50
2018-03-19T05:33:14.290Z,5.07
2018-03-19T05:35:41.935Z,4.73
2018-03-19T05:38:10.377Z,5.17
2018-03-19T05:40:38.038Z,4.70
2018-03-19T05:43:05.757Z,4.83
2018-03-19T05:45:33.397Z,4.77
2018-03-19T05:48:01.045Z,4.60
2018-03-19T05:50:28.714Z,5.20
2018-03-19T05:52:56.401Z,5.10
2018-03-19T05:55:25.043Z,4.93
2018-03-19T05:57:52.723Z,5.30
2018-03-19T06:00:20.429Z,4.30
2018-03-19T06:02:48.869Z,4.90
2018-03-19T06:05:16.527Z,5.23
2018-03-19T06:07:44.199Z,4.83
2018-03-19T06:10:11.864Z,5.10
2018-03-19T06:12:39.509Z,5.30
2018-03-19T06:15:07.180Z,4.63
2018-03-19T06:17:34.837Z,4.87
2018-03-19T06:20:02.537Z,4.80
2018-03-19T06:22:30.178Z,5.00
2018-03-19T06:24:57.872Z,5.30
2018-03-19T06:27:26.291Z,5.37
2018-03-19T06:29:53.960Z,5.23
2018-03-19T06:32:21.624Z,6.07
2018-03-19T06:34:49.281Z,5.20
2018-03-19T06:37:16.890Z,5.33
2018-03-19T06:39:44.532Z,5.00
2018-03-19T06:42:12.206Z,5.77
2018-03-19T06:44:39.874Z,4.97
2018-03-19T06:47:07.786Z,5.53
2018-03-19T06:49:35.383Z,5.33
2018-03-19T06:52:03.054Z,5.50
2018-03-19T06:54:30.719Z,5.27
2018-03-19T06:56:58.398Z,6.10
2018-03-19T06:59:26.056Z,6.00
2018-03-19T07:01:53.729Z,6.37
2018-03-19T07:04:22.162Z,5.17
2018-03-19T07:06:49.822Z,5.47
2018-03-19T07:09:17.497Z,6.10
2018-03-19T07:11:45.161Z,6.10
2018-03-19T07:14:12.832Z,5.73
2018-03-19T07:16:40.657Z,6.00
2018-03-19T07:19:08.349Z,5.90
2018-03-19T07:21:36.017Z,5.47
2018-03-19T07:24:03.704Z,5.23
2018-03-19T07:26:32.689Z,5.60
2018-03-19T07:29:00.353Z,6.20
2018-03-19T07:31:28.033Z,6.00
2018-03-19T07:33:55.688Z,6.13
2018-03-19T07:36:23.353Z,5.80
2018-03-19T07:38:51.002Z,6.63
2018-03-19T07:41:18.670Z,6.13
2018-03-19T07:43:46.273Z,5.80
2018-03-19T07:46:14.727Z,6.13
2018-03-19T07:48:42.342Z,6.07
2018-03-19T07:51:10.007Z,5.83
2018-03-19T07:53:37.681Z,5.80
2018-03-19T07:56:06.088Z,5.93
2018-03-19T07:58:33.759Z,6.10
2018-03-19T08:01:01.400Z,6.40
2018-03-19T08:03:29.064Z,6.40
2018-03-19T08:05:56.724Z,6.13
2018-03-19T08:08:24.368Z,6.10
2018-03-19T08:10:52.011Z,6.57
2018-03-19T08:13:19.680Z,6.67
2018-03-19T08:15:48.263Z,5.90
2018-03-19T08:18:15.951Z,6.77
2018-03-19T08:20:43.612Z,6.47
2018-03-19T08:23:11.278Z,6.23
2018-03-19T08:25:38.963Z,6.27
2018-03-19T08:28:06.584Z,6.60
2018-03-19T08:30:34.321Z,6.00
2018-03-19T08:33:01.971Z,5.83
2018-03-19T08:35:29.678Z,16.03
2018-03-19T08:37:57.378Z,21.73
2018-03-19T08:40:25.056Z,5.80
2018-03-19T08:42:52.724Z,7.13
2018-03-19T08:45:23.779Z,6.00
2018-03-19T08:47:51.441Z,5.70
2018-03-19T08:50:19.118Z,7.07
2018-03-19T08:52:47.547Z,6.20
2018-03-19T08:55:15.171Z,6.00
2018-03-19T08:57:42.843Z,5.57
2018-03-19T09:00:10.632Z,5.90
2018-03-19T09:02:38.255Z,5.77
2018-03-19T09:05:05.906Z,6.03
2018-03-19T09:07:34.332Z,6.33
2018-03-19T09:10:02.012Z,5.50
2018-03-19T09:12:29.706Z,6.03
2018-03-19T09:14:59.298Z,6.20
2018-03-19T09:17:26.974Z,6.27
2018-03-19T09:19:55.402Z,5.87
2018-03-19T09:22:23.205Z,5.97
2018-03-19T09:24:50.870Z,5.60
2018-03-19T09:27:18.537Z,6.30
2018-03-19T09:29:46.231Z,6.23
2018-03-19T09:32:13.907Z,6.13
2018-03-19T09:34:41.560Z,6.27
2018-03-19T09:37:10.170Z,6.70
2018-03-19T09:39:38.448Z,6.30
2018-03-19T09:42:06.720Z,5.77
2018-03-19T09:44:34.943Z,5.63
2018-03-19T09:47:02.907Z,6.50
2018-03-19T09:49:31.881Z,6.47
2018-03-19T09:52:00.517Z,5.93
2018-03-19T09:54:28.201Z,6.47
2018-03-19T09:56:55.896Z,6.73
2018-03-19T09:59:23.565Z,6.43
2018-03-19T10:01:52.577Z,6.20
2018-03-19T10:04:20.235Z,6.30
2018-03-19T10:06:49.093Z,7.30
2018-03-19T10:09:17.384Z,6.07
2018-03-19T10:11:45.789Z,5.83
2018-03-19T10:14:14.222Z,6.23
2018-03-19T10:16:42.226Z,6.03
2018-03-19T10:19:10.110Z,5.80
2018-03-19T10:21:40.405Z,5.93
2018-03-19T10:24:08.086Z,5.67
2018-03-19T10:26:35.767Z,5.77
2018-03-19T10:29:03.438Z,6.50
2018-03-19T10:31:31.854Z,6.50
2018-03-19T10:33:59.544Z,6.23
2018-03-19T10:36:28.401Z,5.40
2018-03-19T10:38:56.076Z,5.27
2018-03-19T10:41:24.349Z,5.50
2018-03-19T10:43:52.010Z,6.13
2018-03-19T10:46:19.673Z,5.90
2018-03-19T10:48:47.319Z,5.77
2018-03-19T10:51:15.011Z,5.87
2018-03-19T10:53:42.676Z,5.50
2018-03-19T10:56:10.361Z,5.67
2018-03-19T10:58:37.998Z,5.33
2018-03-19T11:01:12.476Z,6.17
2018-03-19T11:03:40.642Z,5.97
2018-03-19T11:06:14.760Z,6.20
2018-03-19T11:08:47.575Z,6.17
2018-03-19T11:11:15.252Z,4.70
2018-03-19T11:13:42.922Z,12.07
2018-03-19T11:16:11.416Z,5.70
2018-03-19T11:18:39.077Z,4.97
2018-03-19T11:21:06.742Z,5.40
2018-03-19T11:23:34.420Z,5.67
2018-03-19T11:26:08.431Z,5.30
2018-03-19T11:28:36.141Z,5.20
2018-03-19T11:31:03.742Z,4.63
2018-03-19T11:33:31.350Z,5.03
2018-03-19T11:35:59.055Z,5.23
2018-03-19T11:38:26.739Z,5.20
2018-03-19T11:40:54.409Z,5.17
2018-03-19T11:43:22.049Z,4.90
2018-03-19T11:45:49.694Z,5.20
2018-03-19T11:48:17.344Z,4.87
2018-03-19T11:50:45.005Z,6.30
2018-03-19T11:53:13.428Z,4.77
2018-03-19T11:55:41.206Z,4.80
2018-03-19T11:58:08.915Z,5.30
2018-03-19T12:00:36.579Z,5.40
2018-03-19T12:03:04.238Z,4.70
2018-03-19T12:05:31.904Z,5.70
2018-03-19T12:08:00.306Z,5.90
2018-03-19T12:10:28.412Z,8.70
2018-03-19T12:12:56.076Z,4.50
2018-03-19T12:15:23.866Z,4.93
2018-03-19T12:17:51.526Z,4.57
2018-03-19T12:20:19.191Z,5.07
2018-03-19T12:22:46.955Z,5.10
2018-03-19T12:25:14.702Z,7.03
2018-03-19T12:27:42.351Z,5.97
2018-03-19T12:30:10.039Z,4.87
2018-03-19T12:32:37.721Z,5.27
2018-03-19T12:35:05.388Z,3.87
2018-03-19T12:37:33.790Z,4.20
2018-03-19T12:40:01.442Z,7.10
2018-03-19T12:42:29.078Z,5.00
2018-03-19T12:44:56.777Z,9.63
2018-03-19T12:47:25.351Z,4.23
2018-03-19T12:49:53.806Z,4.60
2018-03-19T12:52:22.421Z,4.70
2018-03-19T12:54:50.070Z,4.57
2018-03-19T12:57:17.755Z,4.27
2018-03-19T12:59:46.178Z,3.80
2018-03-19T13:02:13.844Z,4.70
2018-03-19T13:04:41.500Z,3.87
2018-03-19T13:07:09.182Z,3.80
2018-03-19T13:09:36.854Z,4.50
2018-03-19T13:12:04.521Z,4.87
2018-03-19T13:14:32.181Z,4.83
2018-03-19T13:17:00.782Z,4.20
2018-03-19T13:19:29.227Z,3.90
2018-03-19T13:21:56.918Z,4.27
2018-03-19T13:24:24.646Z,4.10
2018-03-19T13:26:52.313Z,4.23
2018-03-19T13:29:19.979Z,4.80
2018-03-19T13:31:47.669Z,4.17
2018-03-19T13:34:15.340Z,4.53
2018-03-19T13:36:43.006Z,4.30
2018-03-19T13:39:10.673Z,4.63
2018-03-19T13:41:44.260Z,3.90
2018-03-19T13:44:18.121Z,3.90
2018-03-19T13:46:46.142Z,4.40
2018-03-19T13:49:13.912Z,4.17
2018-03-19T13:51:41.786Z,5.40
2018-03-19T13:54:09.826Z,4.30
2018-03-19T13:56:38.635Z,4.07
2018-03-19T13:59:06.359Z,4.40
2018-03-19T14:01:35.056Z,3.93
2018-03-19T14:04:03.094Z,4.20
2018-03-19T14:06:30.875Z,4.30
2018-03-19T14:08:58.763Z,4.13
2018-03-19T14:11:26.620Z,4.17
2018-03-19T14:13:54.405Z,4.23
2018-03-19T14:16:22.288Z,5.50
2018-03-19T14:18:51.287Z,4.23
2018-03-19T14:21:20.025Z,4.30
2018-03-19T14:23:47.871Z,4.53
2018-03-19T14:26:16.630Z,4.60
2018-03-19T14:28:44.675Z,4.63
2018-03-19T14:31:12.573Z,4.27
2018-03-19T14:33:44.069Z,4.00
2018-03-19T14:36:12.968Z,4.70
2018-03-19T14:38:40.680Z,4.63
2018-03-19T14:41:08.331Z,4.40
2018-03-19T14:43:36.110Z,5.53
2018-03-19T14:46:04.800Z,7.40
2018-03-19T14:48:32.476Z,4.80
2018-03-19T14:51:00.230Z,4.33
2018-03-19T14:53:27.900Z,4.40
2018-03-19T14:55:55.640Z,6.33
2018-03-19T14:58:23.229Z,4.10
2018-03-19T15:00:51.662Z,4.23
2018-03-19T15:03:19.814Z,4.30
2018-03-19T15:05:48.597Z,4.70
2018-03-19T15:08:17.191Z,4.00
2018-03-19T15:10:45.019Z,5.03
2018-03-19T15:13:15.397Z,4.30
2018-03-19T15:15:43.025Z,4.20
2018-03-19T15:18:11.492Z,4.27
2018-03-19T15:20:39.149Z,3.83
2018-03-19T15:23:06.936Z,4.07
2018-03-19T15:25:35.703Z,4.00
2018-03-19T15:28:03.378Z,3.90
2018-03-19T15:30:31.027Z,3.80
2018-03-19T15:32:58.706Z,3.93
2018-03-19T15:35:27.314Z,4.00
2018-03-19T15:37:56.523Z,3.73
2018-03-19T15:40:24.705Z,4.50
2018-03-19T15:42:52.339Z,5.30
2018-03-19T15:45:20.010Z,4.90
2018-03-19T15:47:47.664Z,3.80
2018-03-19T15:50:16.098Z,3.70
2018-03-19T15:52:43.795Z,3.87
2018-03-19T15:55:11.444Z,4.50
2018-03-19T15:57:39.344Z,3.83
2018-03-19T16:00:08.003Z,3.83
2018-03-19T16:02:36.555Z,3.93
2018-03-19T16:05:06.036Z,4.13
2018-03-19T16:07:33.763Z,4.00
2018-03-19T16:10:01.465Z,4.33
2018-03-19T16:12:29.111Z,3.73
2018-03-19T16:14:56.796Z,3.80
2018-03-19T16:17:24.633Z,3.73
2018-03-19T16:19:53.152Z,3.60
2018-03-19T16:22:20.809Z,3.17
2018-03-19T16:24:48.472Z,3.43
2018-03-19T16:27:16.213Z,4.00
2018-03-19T16:29:43.864Z,3.63
2018-03-19T16:32:12.932Z,3.90
2018-03-19T16:34:40.674Z,3.40
2018-03-19T16:37:09.090Z,3.90
2018-03-19T16:39:36.755Z,3.23
2018-03-19T16:42:06.730Z,3.57
2018-03-19T16:44:35.238Z,3.27
2018-03-19T16:47:02.924Z,3.30
2018-03-19T16:49:30.600Z,3.60
2018-03-19T16:51:58.250Z,5.80
2018-03-19T16:54:25.909Z,5.00
2018-03-19T16:56:53.582Z,3.70
2018-03-19T16:59:21.237Z,3.53
2018-03-19T17:01:48.885Z,3.93
2018-03-19T17:04:16.545Z,3.97
2018-03-19T17:06:44.946Z,3.90
2018-03-19T17:09:12.608Z,4.00
2018-03-19T17:11:40.268Z,3.93
2018-03-19T17:14:07.917Z,4.23
2018-03-19T17:16:37.728Z,4.27
2018-03-19T17:19:05.453Z,4.07
2018-03-19T17:21:33.158Z,4.03
2018-03-19T17:24:01.658Z,4.93
2018-03-19T17:26:29.314Z,4.77
2018-03-19T17:28:56.967Z,4.60
2018-03-19T17:31:24.631Z,4.23
2018-03-19T17:33:53.065Z,4.30
2018-03-19T17:36:20.725Z,3.90
2018-03-19T17:38:49.157Z,4.30
2018-03-19T17:41:16.850Z,8.93
2018-03-19T17:43:44.580Z,9.77
2018-03-19T17:46:13.175Z,18.47
2018-03-19T17:48:40.831Z,7.40
2018-03-19T17:51:08.492Z,4.17
2018-03-19T17:53:36.176Z,4.63
2018-03-19T17:56:03.843Z,4.60
2018-03-19T17:58:32.439Z,5.87
2018-03-19T18:01:00.961Z,6.40
2018-03-19T18:03:28.643Z,5.53
2018-03-19T18:05:56.322Z,5.87
2018-03-19T18:08:23.998Z,7.10
2018-03-19T18:10:51.675Z,5.97
2018-03-19T18:13:19.346Z,6.80
2018-03-19T18:15:48.985Z,7.60
2018-03-19T18:18:16.707Z,7.20
2018-03-19T18:20:44.343Z,8.30
2018-03-19T18:23:12.014Z,11.33
2018-03-19T18:25:39.688Z,8.57
2018-03-19T18:28:07.403Z,8.87
2018-03-19T18:30:37.758Z,8.53
2018-03-19T18:33:05.729Z,8.90
2018-03-19T18:35:33.426Z,8.00
2018-03-19T18:38:01.095Z,8.33
2018-03-19T18:40:28.828Z,7.33
2018-03-19T18:42:56.479Z,6.33
2018-03-19T18:45:24.140Z,5.43
2018-03-19T18:47:51.813Z,5.70
2018-03-19T18:50:19.520Z,6.93
2018-03-19T18:52:47.976Z,5.83
2018-03-19T18:55:15.650Z,4.67
2018-03-19T18:57:43.346Z,5.20
2018-03-19T19:00:11.045Z,4.73
2018-03-19T19:02:38.737Z,5.07
2018-03-19T19:05:09.517Z,4.87
2018-03-19T19:07:37.182Z,5.00
2018-03-19T19:10:04.841Z,4.77
2018-03-19T19:12:32.516Z,5.00
2018-03-19T19:15:00.216Z,5.10
2018-03-19T19:17:27.856Z,5.40
2018-03-19T19:19:55.507Z,4.80
2018-03-19T19:22:23.174Z,5.20
2018-03-19T19:24:51.629Z,4.83
2018-03-19T19:27:19.301Z,4.90
2018-03-19T19:29:46.972Z,4.90
2018-03-19T19:32:14.648Z,4.77
2018-03-19T19:34:42.329Z,4.67
2018-03-19T19:37:09.981Z,4.30
2018-03-19T19:39:37.652Z,4.73
2018-03-19T19:42:05.363Z,4.33
2018-03-19T19:44:33.791Z,5.23
2018-03-19T19:47:01.484Z,14.77
2018-03-19T19:49:29.165Z,5.70
2018-03-19T19:51:56.841Z,4.30
2018-03-19T19:54:24.510Z,4.60
2018-03-19T19:56:53.237Z,4.20
2018-03-19T19:59:20.923Z,4.40
2018-03-19T20:01:48.584Z,4.43
2018-03-19T20:04:16.267Z,5.20
2018-03-19T20:06:43.937Z,5.00
2018-03-19T20:09:12.301Z,4.30
2018-03-19T20:11:39.981Z,4.87
2018-03-19T20:14:07.661Z,4.70
2018-03-19T20:16:35.314Z,5.20
2018-03-19T20:19:03.009Z,5.50
2018-03-19T20:21:30.678Z,5.47
2018-03-19T20:23:58.342Z,5.27
2018-03-19T20:26:29.600Z,5.37
2018-03-19T20:28:57.251Z,5.27
2018-03-19T20:31:24.914Z,5.53
2018-03-19T20:33:52.566Z,5.90
2018-03-19T20:36:20.194Z,6.63
2018-03-19T20:38:48.609Z,5.97
2018-03-19T20:41:16.277Z,5.53
2018-03-19T20:43:43.964Z,6.10
2018-03-19T20:46:11.632Z,6.10
2018-03-19T20:48:39.328Z,5.57
2018-03-19T20:51:06.989Z,5.83
2018-03-19T20:53:34.632Z,5.60
2018-03-19T20:56:03.295Z,5.63
2018-03-19T20:58:30.956Z,6.13
2018-03-19T21:00:58.614Z,6.23
2018-03-19T21:03:26.277Z,10.10
2018-03-19T21:05:53.862Z,6.37
2018-03-19T21:08:21.528Z,6.87
2018-03-19T21:10:49.177Z,6.50
2018-03-19T21:13:16.841Z,6.83
2018-03-19T21:15:44.522Z,6.87
2018-03-19T21:18:12.170Z,6.57
2018-03-19T21:20:39.842Z,6.70
2018-03-19T21:23:07.550Z,6.53
2018-03-19T21:25:36.180Z,6.80
2018-03-19T21:28:03.918Z,7.33
2018-03-19T21:30:31.577Z,6.10
2018-03-19T21:32:59.247Z,6.30
2018-03-19T21:35:26.923Z,6.47
2018-03-19T21:37:54.591Z,7.00
2018-03-19T21:40:22.247Z,7.20
2018-03-19T21:42:49.932Z,6.93
2018-03-19T21:45:17.618Z,6.30
2018-03-19T21:47:46.054Z,6.90
2018-03-19T21:50:13.714Z,7.03
2018-03-19T21:52:42.171Z,7.57
2018-03-19T21:55:10.800Z,7.33
2018-03-19T21:57:38.474Z,7.03
2018-03-19T22:00:06.138Z,7.10
2018-03-19T22:02:33.809Z,7.37
2018-03-19T22:05:01.493Z,7.27
2018-03-19T22:07:29.956Z,7.67
2018-03-19T22:09:57.665Z,7.37
2018-03-19T22:12:25.345Z,7.67
2018-03-19T22:14:53.056Z,7.33
2018-03-19T22:17:20.735Z,6.67
2018-03-19T22:19:49.187Z,7.07
2018-03-19T22:22:16.855Z,7.47
2018-03-19T22:24:44.524Z,7.77
2018-03-19T22:27:12.171Z,7.60
2018-03-19T22:29:39.824Z,9.20
2018-03-19T22:32:07.492Z,8.47
2018-03-19T22:34:35.172Z,7.70
2018-03-19T22:37:02.821Z,8.70
2018-03-19T22:39:30.500Z,8.33
2018-03-19T22:41:58.156Z,8.10
2018-03-19T22:44:25.863Z,8.30
2018-03-19T22:46:54.591Z,8.03
2018-03-19T22:49:22.240Z,8.40
2018-03-19T22:51:50.706Z,8.03
2018-03-19T22:54:18.382Z,8.13
2018-03-19T22:56:46.041Z,7.57
2018-03-19T22:59:13.757Z,7.70
2018-03-19T23:01:41.453Z,8.50
2018-03-19T23:04:09.512Z,7.67
2018-03-19T23:06:37.940Z,7.57
2018-03-19T23:09:05.626Z,7.60
2018-03-19T23:11:33.287Z,7.20
2018-03-19T23:14:00.946Z,7.63
2018-03-19T23:16:30.847Z,7.70
2018-03-19T23:18:58.517Z,7.13
2018-03-19T23:21:26.188Z,6.47
2018-03-19T23:23:53.856Z,7.30
2018-03-19T23:26:21.505Z,7.40
2018-03-19T23:28:49.198Z,6.10
2018-03-19T23:31:16.867Z,7.27
2018-03-19T23:33:44.517Z,6.70
2018-03-19T23:36:12.200Z,6.13
2018-03-19T23:38:40.634Z,5.83
2018-03-19T23:41:08.288Z,6.53
2018-03-19T23:43:35.979Z,6.63
2018-03-19T23:46:05.867Z,6.67
2018-03-19T23:48:33.564Z,6.93
2018-03-19T23:51:01.233Z,7.00
2018-03-19T23:53:28.889Z,7.87
2018-03-19T23:55:56.533Z,7.43
2018-03-19T23:58:24.201Z,7.13
